Time;durP1;ratioP1;P1;durP2;ratioP2;P2;SDS_P1;SDS_P2;PMS_P1;PMS_P2;Temp;Humidity;BMP_temperature;BMP_pressure;BME280_temperature;BME280_humidity;BME280_pressure;Samples;Min_cycle;Max_cycle;Signal;HPM_P1;HPM_P2
2022/12/06 00:02:26;;;;;;;23.03;9.87;;;;;;;-141.28;100.00;50373.38;5092175;28;20511;-76
2022/12/06 00:04:55;;;;;;;19.07;9.87;;;;;;;-141.28;100.00;50375.34;5091944;28;20460;-75
2022/12/06 00:07:21;;;;;;;13.60;7.53;;;;;;;-141.28;100.00;50377.31;5092236;28;20445;-75
2022/12/06 00:09:49;;;;;;;13.70;7.60;;;;;;;-141.28;100.00;50304.69;5091643;28;20441;-75
2022/12/06 00:12:16;;;;;;;14.70;7.70;;;;;;;-141.28;100.00;50444.06;5099122;28;20484;-75
2022/12/06 00:14:43;;;;;;;11.90;6.70;;;;;;;-141.28;100.00;50467.59;5101129;28;20475;-78
2022/12/06 00:17:10;;;;;;;13.27;7.47;;;;;;;-141.28;100.00;50514.72;5099915;28;20502;-74
2022/12/06 00:19:37;;;;;;;15.13;7.20;;;;;;;-141.28;100.00;50493.13;5114301;28;20509;-75
2022/12/06 00:22:05;;;;;;;12.70;6.90;;;;;;;-141.28;100.00;50473.50;5098475;28;20498;-74
2022/12/06 00:24:34;;;;;;;12.57;7.67;;;;;;;-141.28;100.00;50385.16;5112345;28;20433;-77
2022/12/06 00:27:02;;;;;;;11.70;7.00;;;;;;;-141.28;100.00;50453.88;5092814;28;20457;-75
2022/12/06 00:29:29;;;;;;;11.43;6.93;;;;;;;-141.28;100.00;50475.47;5105250;28;20900;-76
2022/12/06 00:31:57;;;;;;;12.57;7.17;;;;;;;-141.28;100.00;50487.25;5091977;28;20481;-78
2022/12/06 00:34:24;;;;;;;11.23;7.07;;;;;;;-141.28;100.00;50479.38;5093948;28;20458;-77
2022/12/06 00:36:51;;;;;;;14.47;7.90;;;;;;;-141.28;100.00;50487.25;5102763;28;20441;-74
2022/12/06 00:39:19;;;;;;;18.00;7.90;;;;;;;-141.28;100.00;50557.91;5092202;28;20437;-78
2022/12/06 00:41:46;;;;;;;14.03;7.00;;;;;;;-141.28;100.00;50593.22;5091319;28;20453;-79
2022/12/06 00:44:13;;;;;;;13.10;7.93;;;;;;;-141.28;100.00;50585.38;5092176;28;20453;-75
2022/12/06 00:46:40;;;;;;;10.83;6.57;;;;;;;-141.28;100.00;50518.66;5091399;28;20442;-75
2022/12/06 00:49:08;;;;;;;9.10;5.90;;;;;;;-141.28;100.00;50571.63;5091557;28;20454;-75
2022/12/06 00:51:36;;;;;;;11.33;6.30;;;;;;;-141.28;100.00;50587.34;5091527;28;20485;-75
2022/12/06 00:54:03;;;;;;;11.17;6.53;;;;;;;-141.28;100.00;50455.84;5092064;28;20449;-78
2022/12/06 00:56:32;;;;;;;9.43;5.67;;;;;;;-141.28;100.00;50497.06;5091440;28;20480;-75
2022/12/06 00:58:59;;;;;;;11.40;5.90;;;;;;;-141.28;100.00;50471.53;5091079;28;20449;-77
2022/12/06 01:01:28;;;;;;;9.57;5.90;;;;;;;-141.28;100.00;50347.88;5091027;28;20465;-75
2022/12/06 01:04:02;;;;;;;10.27;5.67;;;;;;;-141.28;100.00;50338.06;5098191;28;20959;-76
2022/12/06 01:06:31;;;;;;;10.10;6.53;;;;;;;-141.28;100.00;50328.25;5097808;28;20461;-78
2022/12/06 01:09:01;;;;;;;9.57;5.63;;;;;;;-141.28;100.00;50349.84;5111329;28;20517;-75
2022/12/06 01:11:29;;;;;;;11.33;6.23;;;;;;;-141.28;100.00;50334.13;5109804;28;20489;-76
2022/12/06 01:13:57;;;;;;;11.20;7.27;;;;;;;-141.28;100.00;50292.91;5091412;28;20952;-75
2022/12/06 01:16:26;;;;;;;9.43;6.13;;;;;;;-141.28;100.00;50292.91;5104785;28;20444;-75
2022/12/06 01:18:55;;;;;;;12.13;6.60;;;;;;;-141.28;100.00;50320.41;5099980;28;20437;-78
2022/12/06 01:21:23;;;;;;;13.10;6.50;;;;;;;-141.28;100.00;50283.09;5114040;28;20529;-75
2022/12/06 01:23:50;;;;;;;10.73;6.87;;;;;;;-141.28;100.00;50298.81;5099437;28;20537;-77
2022/12/06 01:26:20;;;;;;;10.63;6.37;;;;;;;-141.28;100.00;50310.59;5102365;28;20470;-77
2022/12/06 01:28:47;;;;;;;11.53;6.43;;;;;;;-141.28;100.00;50279.19;5096675;28;20445;-78
2022/12/06 01:31:16;;;;;;;8.60;5.93;;;;;;;-141.28;100.00;50206.56;5094907;28;20504;-76
2022/12/06 01:33:43;;;;;;;10.70;6.53;;;;;;;-141.28;100.00;50228.16;5095696;28;20438;-77
2022/12/06 01:36:17;;;;;;;10.83;6.37;;;;;;;-141.28;100.00;50196.75;5108438;28;20452;-75
2022/12/06 01:38:49;;;;;;;10.00;6.30;;;;;;;-141.28;100.00;50157.50;5115648;28;20966;-74
2022/12/06 01:41:17;;;;;;;9.73;6.40;;;;;;;-141.28;100.00;50135.91;5112686;28;20535;-76
2022/12/06 01:43:47;;;;;;;9.97;6.47;;;;;;;-141.28;100.00;50161.41;5095504;28;20442;-75
2022/12/06 01:46:26;;;;;;;11.20;6.53;;;;;;;-141.28;100.00;50122.16;5095086;28;20442;-78
2022/12/06 01:48:57;;;;;;;22.27;11.77;;;;;;;-141.28;100.00;50075.06;5102474;28;20444;-76
2022/12/06 01:51:25;;;;;;;31.10;17.57;;;;;;;-141.28;100.00;50027.97;5099224;28;20545;-77
2022/12/06 01:53:53;;;;;;;22.07;11.77;;;;;;;-141.28;100.00;50075.06;5103190;28;20448;-75
2022/12/06 01:56:21;;;;;;;14.73;10.23;;;;;;;-141.28;100.00;50071.13;5098991;28;20982;-77
2022/12/06 01:58:51;;;;;;;25.47;14.23;;;;;;;-141.28;100.00;50098.63;5095474;28;20511;-78
2022/12/06 02:01:20;;;;;;;24.30;13.13;;;;;;;-141.28;100.00;50100.56;5095136;28;20518;-74
2022/12/06 02:03:48;;;;;;;21.00;10.90;;;;;;;-141.28;100.00;50100.56;5097086;28;20448;-75
2022/12/06 02:06:16;;;;;;;13.40;7.70;;;;;;;-141.28;100.00;50130.00;5114509;28;20807;-76
2022/12/06 02:08:45;;;;;;;10.67;6.60;;;;;;;-141.28;100.00;50153.56;5110679;28;20499;-78
2022/12/06 02:11:12;;;;;;;10.27;5.20;;;;;;;-141.28;100.00;50092.72;5101933;28;20496;-75
2022/12/06 02:13:40;;;;;;;8.70;5.17;;;;;;;-141.28;100.00;50181.03;5105625;28;20446;-73
2022/12/06 02:16:25;;;;;;;11.40;5.63;;;;;;;-141.28;100.00;50061.31;5106227;28;20523;-74
2022/12/06 02:18:58;;;;;;;9.83;6.03;;;;;;;-141.28;100.00;50137.88;5115436;28;20569;-76
2022/12/06 02:21:36;;;;;;;9.97;5.47;;;;;;;-141.28;100.00;50139.81;5101086;28;20508;-73
2022/12/06 02:24:36;;;;;;;10.47;5.80;;;;;;;-141.28;100.00;50133.94;5101972;28;20473;-76
2022/12/06 02:27:27;;;;;;;9.40;5.73;;;;;;;-141.28;100.00;50137.88;5108403;28;20453;-73
2022/12/06 02:30:07;;;;;;;10.90;6.00;;;;;;;-141.28;100.00;50094.69;5100388;28;20898;-78
2022/12/06 02:32:39;;;;;;;9.20;5.37;;;;;;;-141.28;100.00;50173.19;5118043;28;20481;-77
2022/12/06 02:35:12;;;;;;;8.97;5.07;;;;;;;-141.28;100.00;50153.56;5103584;28;20871;-73
2022/12/06 02:37:44;;;;;;;8.77;5.37;;;;;;;-141.28;100.00;50161.41;5115950;28;20509;-75
2022/12/06 02:40:16;;;;;;;8.90;5.37;;;;;;;-141.28;100.00;50139.81;5116316;28;20450;-75
2022/12/06 02:42:49;;;;;;;9.70;5.60;;;;;;;-141.28;100.00;50232.06;5113281;28;20543;-77
2022/12/06 02:45:21;;;;;;;8.63;5.53;;;;;;;-141.28;100.00;50228.16;5093316;28;20446;-78
2022/12/06 02:47:52;;;;;;;7.60;5.07;;;;;;;-141.28;100.00;50261.50;5104938;28;20441;-75
2022/12/06 02:50:25;;;;;;;9.43;5.47;;;;;;;-141.28;100.00;50271.31;5100417;28;20955;-75
2022/12/06 02:52:54;;;;;;;9.73;5.43;;;;;;;-141.28;100.00;50263.47;5101009;28;20489;-77
2022/12/06 02:55:23;;;;;;;9.67;5.63;;;;;;;-141.28;100.00;50271.31;5112510;28;20453;-77
2022/12/06 02:57:53;;;;;;;10.10;5.30;;;;;;;-141.28;100.00;50298.81;5113337;28;20527;-77
2022/12/06 03:00:32;;;;;;;9.03;5.30;;;;;;;-141.28;100.00;50171.22;5093762;28;20449;-77
2022/12/06 03:03:29;;;;;;;10.47;6.10;;;;;;;-141.28;100.00;50255.63;5106441;28;20527;-75
2022/12/06 03:06:14;;;;;;;9.50;5.43;;;;;;;-141.28;100.00;50145.72;5105372;28;20510;-74
2022/12/06 03:08:49;;;;;;;9.40;5.60;;;;;;;-141.28;100.00;49867.03;5094311;28;20508;-76
2022/12/06 03:11:16;;;;;;;12.20;7.37;;;;;;;-141.28;100.00;50102.53;5112950;28;20448;-78
2022/12/06 03:13:54;;;;;;;13.80;7.67;;;;;;;-141.28;100.00;50122.16;5110167;28;20537;-75
2022/12/06 03:16:27;;;;;;;14.00;7.50;;;;;;;-141.28;100.00;50114.31;5103823;28;20444;-77
2022/12/06 03:19:03;;;;;;;11.33;7.03;;;;;;;-141.28;100.00;50169.28;5107394;28;20503;-77
2022/12/06 03:21:34;;;;;;;14.80;8.03;;;;;;;-141.28;100.00;50165.34;5092806;28;20469;-75
2022/12/06 03:24:05;;;;;;;15.57;7.87;;;;;;;-141.28;100.00;50183.00;5092769;28;20472;-74
2022/12/06 03:26:33;;;;;;;14.63;7.87;;;;;;;-141.28;100.00;50192.81;5107379;28;20453;-79
2022/12/06 03:29:02;;;;;;;12.90;8.07;;;;;;;-141.28;100.00;50196.75;5104303;28;20442;-76
2022/12/06 03:31:33;;;;;;;15.77;8.17;;;;;;;-141.28;100.00;50216.38;5092539;28;20527;-74
2022/12/06 03:34:11;;;;;;;18.33;9.47;;;;;;;-141.28;100.00;50177.13;5093445;28;20815;-80
2022/12/06 03:36:39;;;;;;;17.43;9.33;;;;;;;-141.28;100.00;50179.09;5105794;28;20457;-78
2022/12/06 03:39:08;;;;;;;17.03;8.37;;;;;;;-141.28;100.00;50237.97;5094261;28;20453;-75
2022/12/06 03:41:42;;;;;;;20.23;8.30;;;;;;;-141.28;100.00;50232.06;5113578;28;20448;-75
2022/12/06 03:44:10;;;;;;;12.47;5.73;;;;;;;-141.28;100.00;50255.63;5100533;28;20444;-73
2022/12/06 03:46:38;;;;;;;9.77;6.03;;;;;;;-141.28;100.00;50208.53;5092305;28;20437;-76
2022/12/06 03:49:14;;;;;;;11.40;6.73;;;;;;;-141.28;100.00;50353.75;5104495;28;20449;-76
2022/12/06 03:51:43;;;;;;;10.47;5.90;;;;;;;-141.28;100.00;50347.88;5099489;28;20441;-75
2022/12/06 03:54:13;;;;;;;10.87;6.13;;;;;;;-141.28;100.00;50342.00;5105663;28;20542;-78
2022/12/06 03:56:40;;;;;;;7.53;5.30;;;;;;;-141.28;100.00;50361.63;5100391;28;21047;-79
2022/12/06 03:59:07;;;;;;;13.20;5.63;;;;;;;-141.28;100.00;50349.84;5097674;28;20446;-78
2022/12/06 04:01:34;;;;;;;9.57;5.90;;;;;;;-141.28;100.00;50326.28;5092042;28;20883;-77
2022/12/06 04:04:02;;;;;;;133.60;26.73;;;;;;;-141.28;100.00;50316.47;5091991;28;20457;-75
2022/12/06 04:06:30;;;;;;;297.23;62.60;;;;;;;-141.28;100.00;50279.19;5100255;28;20452;-78
2022/12/06 04:09:51;;;;;;;168.60;41.10;;;;;;;-141.28;100.00;50271.31;5111977;28;20513;-76
2022/12/06 04:11:44;;;;;;;37.90;14.93;;;;;;;-141.28;100.00;50153.56;5091913;28;20429;-75
2022/12/06 04:14:12;;;;;;;31.50;11.27;;;;;;;-141.28;100.00;50031.88;5091551;28;20538;-77
2022/12/06 04:19:35;;;;;;;38.30;13.77;;;;;;;-141.28;100.00;50094.69;5048309;28;20443;-76
2022/12/06 04:24:48;;;;;;;11.80;5.83;;;;;;;-141.28;100.00;50063.28;5068950;28;20432;-77
2022/12/06 04:41:01;;;;;;;12.00;5.53;;;;;;;-141.28;100.00;50027.97;5091385;28;20526;-75
2022/12/06 04:43:43;;;;;;;12.67;5.67;;;;;;;-141.28;100.00;49874.88;5091830;28;20445;-79
2022/12/06 04:46:11;;;;;;;14.83;5.87;;;;;;;-141.28;100.00;50067.22;5091646;28;20480;-75
2022/12/06 04:48:39;;;;;;;12.27;6.60;;;;;;;-141.28;100.00;50110.38;5092073;28;20521;-77
2022/12/06 04:51:06;;;;;;;8.70;5.87;;;;;;;-141.28;100.00;50098.63;5091085;28;20454;-76
2022/12/06 04:53:35;;;;;;;11.00;6.33;;;;;;;-141.28;100.00;50114.31;5091826;28;20498;-78
2022/12/06 04:56:03;;;;;;;14.90;7.37;;;;;;;-141.28;100.00;50130.00;5096058;28;20467;-76
2022/12/06 04:58:30;;;;;;;16.43;7.80;;;;;;;-141.28;100.00;50114.31;5095706;28;21112;-75
2022/12/06 05:00:58;;;;;;;16.17;7.70;;;;;;;-141.28;100.00;50137.88;5095230;28;20445;-78
2022/12/06 05:03:26;;;;;;;13.87;7.10;;;;;;;-141.28;100.00;49953.38;5095779;28;20450;-76
2022/12/06 05:05:52;;;;;;;11.67;6.73;;;;;;;-141.28;100.00;50126.09;5095064;28;20827;-76
2022/12/06 05:08:21;;;;;;;16.13;7.00;;;;;;;-141.28;100.00;50131.97;5109439;28;20448;-76
2022/12/06 05:10:50;;;;;;;20.77;7.60;;;;;;;-141.28;100.00;50094.69;5095452;28;20520;-76
2022/12/06 05:13:18;;;;;;;15.57;7.63;;;;;;;-141.28;100.00;50092.72;5094946;28;20477;-74
2022/12/06 05:15:50;;;;;;;19.33;8.70;;;;;;;-141.28;100.00;50094.69;5104575;28;20449;-79
2022/12/06 05:18:17;;;;;;;13.63;6.23;;;;;;;-141.28;100.00;50065.25;5111743;28;20479;-74
2022/12/06 05:20:45;;;;;;;13.83;6.03;;;;;;;-141.28;100.00;50080.94;5095236;28;20477;-75
2022/12/06 05:23:15;;;;;;;18.23;6.47;;;;;;;-141.28;100.00;50084.88;5095583;28;20530;-77
2022/12/06 05:25:43;;;;;;;14.17;7.50;;;;;;;-141.28;100.00;50055.44;5106544;28;20449;-76
2022/12/06 05:28:15;;;;;;;23.07;11.07;;;;;;;-141.28;100.00;50063.28;5095597;28;20455;-75
2022/12/06 05:30:42;;;;;;;24.67;12.80;;;;;;;-141.28;100.00;50063.28;5094492;28;20859;-76
2022/12/06 05:33:09;;;;;;;25.30;12.03;;;;;;;-141.28;100.00;50145.72;5108792;28;20514;-76
2022/12/06 05:35:39;;;;;;;19.77;9.50;;;;;;;-141.28;100.00;50186.94;5095098;28;20483;-77
2022/12/06 05:38:06;;;;;;;26.43;10.33;;;;;;;-141.28;100.00;50192.81;5094853;28;20468;-75
2022/12/06 05:40:34;;;;;;;17.50;10.07;;;;;;;-141.28;100.00;50169.28;5094939;28;20460;-76
2022/12/06 05:43:01;;;;;;;19.83;9.27;;;;;;;-141.28;100.00;50192.81;5095836;28;20514;-77
2022/12/06 05:45:31;;;;;;;20.40;9.43;;;;;;;-141.28;100.00;50222.25;5097056;28;20442;-77
2022/12/06 05:47:58;;;;;;;21.50;8.97;;;;;;;-141.28;100.00;50247.78;5095931;28;20516;-75
2022/12/06 05:50:26;;;;;;;17.67;8.77;;;;;;;-141.28;100.00;50269.38;5120852;28;20439;-75
2022/12/06 05:52:53;;;;;;;18.13;7.93;;;;;;;-141.28;100.00;50287.03;5138398;28;20548;-76
2022/12/06 05:55:21;;;;;;;19.77;8.27;;;;;;;-141.28;100.00;50318.44;5128276;28;20489;-74
2022/12/06 05:57:49;;;;;;;18.23;9.10;;;;;;;-141.28;100.00;50357.69;5129195;28;20436;-75
2022/12/06 06:00:17;;;;;;;20.67;8.63;;;;;;;-141.28;100.00;50420.50;5121147;28;20425;-77
2022/12/06 06:02:46;;;;;;;31.27;11.30;;;;;;;-141.28;100.00;50475.47;5115714;28;20445;-75
2022/12/06 06:05:13;;;;;;;28.90;11.17;;;;;;;-141.28;100.00;50447.97;5096557;28;20453;-75
2022/12/06 06:07:41;;;;;;;20.90;8.57;;;;;;;-141.28;100.00;50451.91;5108968;28;20452;-75
2022/12/06 06:10:08;;;;;;;15.63;8.50;;;;;;;-141.28;100.00;50412.66;5117262;28;20517;-74
2022/12/06 06:12:35;;;;;;;21.13;9.37;;;;;;;-141.28;100.00;50394.97;5115275;28;21431;-74
2022/12/06 06:15:06;;;;;;;19.23;9.90;;;;;;;-141.28;100.00;50444.06;5098777;28;20529;-75
2022/12/06 06:17:34;;;;;;;20.37;9.70;;;;;;;-141.28;100.00;50500.97;5103100;28;20489;-76
2022/12/06 06:20:05;;;;;;;31.60;11.80;;;;;;;-141.28;100.00;50410.69;5112562;28;20989;-79
2022/12/06 06:22:32;;;;;;;28.73;11.93;;;;;;;-141.28;100.00;50479.38;5113805;28;20476;-78
2022/12/06 06:24:59;;;;;;;29.10;13.37;;;;;;;-141.28;100.00;50597.16;5100591;28;20477;-76
2022/12/06 06:27:28;;;;;;;29.97;14.97;;;;;;;-141.28;100.00;50532.38;5113388;28;20449;-76
2022/12/06 06:29:55;;;;;;;22.57;10.37;;;;;;;-141.28;100.00;50659.97;5108068;28;20991;-77
2022/12/06 06:32:23;;;;;;;31.57;10.93;;;;;;;-141.28;100.00;50687.47;5099760;28;20456;-75
2022/12/06 06:34:51;;;;;;;20.63;10.20;;;;;;;-141.28;100.00;50540.22;5100856;28;20453;-75
2022/12/06 06:37:20;;;;;;;29.77;9.70;;;;;;;-141.28;100.00;50736.53;5102498;28;20446;-76
2022/12/06 06:39:47;;;;;;;17.90;8.17;;;;;;;-141.28;100.00;50799.34;5106287;28;20446;-77
2022/12/06 06:42:14;;;;;;;18.53;9.27;;;;;;;-141.28;100.00;50779.72;5105908;28;20452;-77
2022/12/06 06:44:41;;;;;;;23.70;10.03;;;;;;;-141.28;100.00;50750.28;5093936;28;20449;-76
2022/12/06 06:47:08;;;;;;;20.67;8.63;;;;;;;-141.28;100.00;50483.31;5093426;28;20528;-75
2022/12/06 06:49:35;;;;;;;22.00;10.17;;;;;;;-141.28;100.00;50557.91;5093049;28;20449;-76
2022/12/06 06:52:02;;;;;;;20.37;9.53;;;;;;;-141.28;100.00;50624.63;5093532;28;20445;-78
2022/12/06 06:54:31;;;;;;;22.63;10.33;;;;;;;-141.28;100.00;50606.97;5093902;28;20489;-74
2022/12/06 06:56:59;;;;;;;44.60;17.47;;;;;;;-141.28;100.00;50589.31;5097723;28;20438;-75
2022/12/06 06:59:26;;;;;;;17.80;8.83;;;;;;;-141.28;100.00;50546.13;5099391;28;20956;-78
2022/12/06 07:01:53;;;;;;;17.73;8.03;;;;;;;-141.28;100.00;50538.28;5124395;28;20444;-74
2022/12/06 07:04:21;;;;;;;15.00;7.27;;;;;;;-141.28;100.00;50532.38;5100353;28;20503;-79
2022/12/06 07:06:48;;;;;;;15.03;8.50;;;;;;;-141.28;100.00;50553.97;5093218;28;20602;-76
2022/12/06 07:09:15;;;;;;;19.07;9.33;;;;;;;-141.28;100.00;50569.69;5093516;28;20453;-75
2022/12/06 07:11:44;;;;;;;26.43;11.33;;;;;;;-141.28;100.00;50589.31;5093971;28;20897;-76
2022/12/06 07:14:11;;;;;;;20.00;9.33;;;;;;;-141.28;100.00;50616.78;5095594;28;20489;-75
2022/12/06 07:16:38;;;;;;;20.30;9.30;;;;;;;-141.28;100.00;50579.50;5095675;28;20491;-75
2022/12/06 07:19:05;;;;;;;20.43;8.73;;;;;;;-141.28;100.00;50510.78;5094678;28;20445;-78
2022/12/06 07:21:31;;;;;;;30.20;10.03;;;;;;;-141.28;100.00;50485.28;5095472;28;20488;-77
2022/12/06 07:24:00;;;;;;;20.87;9.40;;;;;;;-141.28;100.00;50457.78;5093778;28;21006;-77
2022/12/06 07:26:28;;;;;;;15.77;7.57;;;;;;;-141.28;100.00;50393.03;5093938;28;20454;-77
2022/12/06 07:28:56;;;;;;;21.60;9.27;;;;;;;-141.28;100.00;50385.16;5105577;28;20450;-75
2022/12/06 07:31:25;;;;;;;15.57;8.53;;;;;;;-141.28;100.00;49988.69;5092611;28;20449;-76
2022/12/06 07:33:53;;;;;;;28.37;9.27;;;;;;;-141.28;100.00;50342.00;5093655;28;20477;-76
2022/12/06 07:36:22;;;;;;;10.97;7.00;;;;;;;-141.28;100.00;50345.91;5092156;28;20563;-77
2022/12/06 07:38:50;;;;;;;14.77;6.27;;;;;;;-141.28;100.00;50322.34;5092188;28;20472;-75
2022/12/06 07:46:49;;;;;;;8.83;5.27;;;;;;;-141.28;100.00;50137.88;5111816;28;20779;-76
2022/12/06 07:49:16;;;;;;;10.80;5.00;;;;;;;-141.28;100.00;50110.38;5098252;28;20441;-76
2022/12/06 07:51:46;;;;;;;14.27;6.43;;;;;;;-141.28;100.00;50184.97;5102078;28;20442;-76
2022/12/06 07:54:14;;;;;;;16.57;8.47;;;;;;;-141.28;100.00;50271.31;5092167;28;20551;-79
2022/12/06 07:56:41;;;;;;;18.60;8.50;;;;;;;-141.28;100.00;50259.56;5092172;28;20511;-75
2022/12/06 07:59:10;;;;;;;14.70;7.50;;;;;;;-141.28;100.00;50408.72;5093498;28;20482;-75
2022/12/06 08:01:37;;;;;;;9.73;5.07;;;;;;;-141.28;100.00;50424.44;5091861;28;20511;-76
2022/12/06 08:04:05;;;;;;;13.33;6.00;;;;;;;-141.28;100.00;50469.56;5091437;28;20537;-75
2022/12/06 08:06:33;;;;;;;11.30;6.37;;;;;;;-141.28;100.00;50481.34;5102829;28;20461;-76
2022/12/06 08:09:00;;;;;;;9.77;4.50;;;;;;;-141.28;100.00;50459.75;5093631;28;20449;-76
2022/12/06 08:11:27;;;;;;;15.07;5.60;;;;;;;-141.28;100.00;50479.38;5091467;28;20514;-76
2022/12/06 08:13:54;;;;;;;12.53;6.00;;;;;;;-141.28;100.00;50459.75;5091970;28;20477;-75
2022/12/06 08:16:22;;;;;;;11.90;6.03;;;;;;;-141.28;100.00;50424.44;5092143;28;20533;-74
2022/12/06 08:18:49;;;;;;;14.83;6.47;;;;;;;-141.28;100.00;50342.00;5105289;28;20438;-75
2022/12/06 08:21:17;;;;;;;10.30;5.03;;;;;;;-141.28;100.00;50342.00;5091757;28;20465;-75
2022/12/06 08:23:44;;;;;;;11.93;6.63;;;;;;;-141.28;100.00;50432.28;5091870;28;20515;-75
2022/12/06 08:26:13;;;;;;;25.33;9.57;;;;;;;-141.28;100.00;50389.09;5103613;28;20436;-75
2022/12/06 08:28:42;;;;;;;13.00;7.70;;;;;;;-141.28;100.00;50408.72;5094005;28;20434;-75
2022/12/06 08:31:10;;;;;;;15.07;7.47;;;;;;;-141.28;100.00;50365.53;5091474;28;20450;-75
2022/12/06 08:33:38;;;;;;;9.50;5.90;;;;;;;-141.28;100.00;50318.44;5091987;28;20963;-77
2022/12/06 08:36:08;;;;;;;11.77;5.20;;;;;;;-141.28;100.00;50277.22;5092337;28;20514;-78
2022/12/06 08:38:36;;;;;;;12.27;4.80;;;;;;;-141.28;100.00;50200.66;5111502;28;20449;-76
2022/12/06 08:41:04;;;;;;;14.10;6.63;;;;;;;-141.28;100.00;50181.03;5095695;28;20445;-79
2022/12/06 08:43:32;;;;;;;12.73;6.30;;;;;;;-141.28;100.00;50212.44;5091247;28;20453;-77
2022/12/06 08:46:01;;;;;;;16.10;6.80;;;;;;;-141.28;100.00;50281.13;5090907;28;20454;-76
2022/12/06 08:48:30;;;;;;;20.87;7.93;;;;;;;-141.28;100.00;50332.19;5098898;28;20816;-78
2022/12/06 08:51:05;;;;;;;13.03;6.87;;;;;;;-141.28;100.00;50328.25;5097210;28;20438;-75
2022/12/06 08:53:35;;;;;;;17.60;7.07;;;;;;;-141.28;100.00;50308.63;5099999;28;20859;-78
2022/12/06 08:56:03;;;;;;;14.43;6.73;;;;;;;-141.28;100.00;50290.97;5096217;28;20833;-75
2022/12/06 08:58:32;;;;;;;12.43;5.97;;;;;;;-141.28;100.00;50255.63;5091379;28;20461;-76
2022/12/06 09:01:14;;;;;;;17.60;7.50;;;;;;;-141.28;100.00;50008.34;5091480;28;20441;-79
2022/12/06 09:03:41;;;;;;;10.67;6.17;;;;;;;-141.28;100.00;50157.50;5091042;28;20465;-76
2022/12/06 09:06:10;;;;;;;14.50;6.23;;;;;;;-141.28;100.00;50086.84;5090985;28;20510;-76
2022/12/06 09:08:38;;;;;;;15.87;6.10;;;;;;;-141.28;100.00;50055.44;5091205;28;20445;-76
2022/12/06 09:11:06;;;;;;;11.93;6.90;;;;;;;-141.28;100.00;50012.25;5103367;28;20451;-76
2022/12/06 09:13:35;;;;;;;11.60;4.93;;;;;;;-141.28;100.00;49996.56;5111092;28;20900;-79
2022/12/06 09:16:06;;;;;;;14.10;5.90;;;;;;;-141.28;100.00;50016.19;5097858;28;20525;-77
2022/12/06 09:18:33;;;;;;;9.07;4.43;;;;;;;-141.28;100.00;50031.88;5111841;28;20445;-75
2022/12/06 09:21:04;;;;;;;11.63;6.27;;;;;;;-141.28;100.00;50075.06;5097161;28;20455;-76
2022/12/06 09:23:33;;;;;;;10.70;5.70;;;;;;;-141.28;100.00;50094.69;5110763;28;20480;-78
2022/12/06 09:26:00;;;;;;;13.97;6.63;;;;;;;-141.28;100.00;50075.06;5110601;28;20470;-77
2022/12/06 09:28:28;;;;;;;11.00;6.00;;;;;;;-141.28;100.00;50126.09;5097005;28;20454;-77
2022/12/06 09:30:55;;;;;;;17.00;7.13;;;;;;;-141.28;100.00;50184.97;5090876;28;20450;-76
2022/12/06 09:33:23;;;;;;;10.63;6.13;;;;;;;-141.28;100.00;50200.66;5100069;28;20453;-76
2022/12/06 09:35:52;;;;;;;10.57;4.73;;;;;;;-141.28;100.00;50245.81;5091044;28;20441;-79
2022/12/06 09:38:21;;;;;;;8.13;4.93;;;;;;;-141.28;100.00;50253.66;5090729;28;20937;-75
2022/12/06 09:41:02;;;;;;;16.00;6.17;;;;;;;-141.28;100.00;50275.25;5090895;28;20441;-77
2022/12/06 09:43:41;;;;;;;9.47;5.80;;;;;;;-141.28;100.00;50334.13;5094652;28;20449;-78
2022/12/06 09:46:31;;;;;;;12.63;5.93;;;;;;;-141.28;100.00;50428.34;5094519;28;20511;-74
2022/12/06 09:49:26;;;;;;;12.30;6.23;;;;;;;-141.28;100.00;50432.28;5105258;28;20444;-76
2022/12/06 09:52:17;;;;;;;5.90;3.70;;;;;;;-141.28;100.00;50469.56;5114271;28;20441;-76
2022/12/06 09:55:03;;;;;;;10.47;5.73;;;;;;;-141.28;100.00;50546.13;5098274;28;20477;-76
2022/12/06 09:57:38;;;;;;;16.60;6.90;;;;;;;-141.28;100.00;50569.69;5094560;28;20468;-76
2022/12/06 10:00:09;;;;;;;15.20;7.90;;;;;;;-141.28;100.00;50463.69;5100124;28;20535;-77
2022/12/06 10:02:58;;;;;;;22.53;7.30;;;;;;;-141.28;100.00;50351.81;5100571;28;20442;-75
2022/12/06 10:05:36;;;;;;;16.13;7.10;;;;;;;-141.28;100.00;50349.84;5106392;28;21021;-76
2022/12/06 10:08:15;;;;;;;13.83;6.67;;;;;;;-141.28;100.00;50345.91;5100560;28;20453;-75
2022/12/06 10:10:53;;;;;;;14.10;6.23;;;;;;;-141.28;100.00;50349.84;5098672;28;20453;-76
2022/12/06 10:13:35;;;;;;;12.33;6.50;;;;;;;-141.28;100.00;50334.13;5103435;28;20446;-75
2022/12/06 10:16:15;;;;;;;15.80;6.50;;;;;;;-141.28;100.00;50349.84;5095307;28;20457;-77
2022/12/06 10:18:58;;;;;;;13.63;6.30;;;;;;;-141.28;100.00;50410.69;5094731;28;20531;-75
2022/12/06 10:21:36;;;;;;;12.27;6.23;;;;;;;-141.28;100.00;50377.31;5101989;28;20514;-78
2022/12/06 10:24:16;;;;;;;12.67;6.20;;;;;;;-141.28;100.00;50357.69;5109413;28;20521;-75
2022/12/06 10:26:49;;;;;;;14.23;6.77;;;;;;;-141.28;100.00;50455.84;5114681;28;20521;-77
2022/12/06 10:29:21;;;;;;;11.70;7.37;;;;;;;-141.28;100.00;50463.69;5111011;28;20448;-75
2022/12/06 10:31:56;;;;;;;14.20;5.60;;;;;;;-141.28;100.00;50542.19;5101339;28;20458;-75
2022/12/06 10:34:39;;;;;;;19.33;6.27;;;;;;;-141.28;100.00;50528.47;5099180;28;20949;-77
2022/12/06 10:37:19;;;;;;;20.13;7.43;;;;;;;-141.28;100.00;50542.19;5114288;28;20445;-76
2022/12/06 10:39:53;;;;;;;18.00;7.57;;;;;;;-141.28;100.00;50410.69;5112734;28;20436;-76
2022/12/06 10:42:34;;;;;;;16.23;8.07;;;;;;;-141.28;100.00;50396.94;5113351;28;20479;-80
2022/12/06 10:48:00;;;;;;;15.60;7.07;;;;;;;-141.28;100.00;50192.81;5111979;28;20806;-77
2022/12/06 10:50:30;;;;;;;11.47;6.63;;;;;;;-141.28;100.00;50080.94;5093204;28;20507;-80
2022/12/06 10:53:04;;;;;;;12.93;6.87;;;;;;;-141.28;100.00;49949.44;5092612;28;21021;-79
2022/12/06 10:55:36;;;;;;;12.83;7.60;;;;;;;-141.28;100.00;49870.94;5093434;28;21044;-80
2022/12/06 10:58:13;;;;;;;11.83;6.47;;;;;;;-141.28;100.00;49817.97;5093416;28;20483;-79
2022/12/06 11:00:50;;;;;;;18.17;7.90;;;;;;;-141.28;100.00;49839.56;5094479;28;20449;-76
2022/12/06 11:03:23;;;;;;;21.03;9.90;;;;;;;-141.28;100.00;49810.13;5106725;28;20441;-76
2022/12/06 11:05:55;;;;;;;25.47;12.00;;;;;;;-141.28;100.00;49812.06;5092759;28;20445;-76
2022/12/06 11:08:28;;;;;;;18.57;8.20;;;;;;;-141.28;100.00;49827.78;5100457;28;20488;-75
2022/12/06 11:10:58;;;;;;;17.07;8.50;;;;;;;-141.28;100.00;49874.88;5100866;28;20570;-74
2022/12/06 11:13:35;;;;;;;25.27;10.80;;;;;;;-141.28;100.00;49971.03;5101186;28;20899;-74
2022/12/06 11:16:09;;;;;;;18.60;7.17;;;;;;;-141.28;100.00;50110.38;5111778;28;20513;-74
2022/12/06 11:18:37;;;;;;;11.23;7.20;;;;;;;-141.28;100.00;50208.53;5107742;28;20825;-74
2022/12/06 11:21:12;;;;;;;17.73;6.17;;;;;;;-141.28;100.00;50781.69;5122085;28;20457;-74
2022/12/06 11:23:48;;;;;;;10.77;5.77;;;;;;;-141.28;100.00;51979.34;5115381;28;20504;-75
2022/12/06 11:26:22;;;;;;;21.33;7.23;;;;;;;-141.28;100.00;51969.53;5101789;28;20453;-73
2022/12/06 11:29:02;;;;;;;14.13;7.10;;;;;;;-141.28;100.00;51724.06;5111724;28;20839;-75
2022/12/06 11:31:35;;;;;;;15.97;8.93;;;;;;;-141.28;100.00;51932.22;5102053;28;20206;-72
2022/12/06 11:34:04;;;;;;;14.70;7.93;;;;;;;-141.28;100.00;52042.19;5101615;28;20236;-76
2022/12/06 11:36:31;;;;;;;19.73;9.30;;;;;;;-141.28;100.00;52242.50;5106852;28;20273;-73
2022/12/06 11:39:00;;;;;;;17.50;7.40;;;;;;;-141.28;100.00;52309.28;5107770;28;20227;-75
2022/12/06 11:41:30;;;;;;;12.43;6.27;;;;;;;-141.28;100.00;52281.78;5093508;28;20204;-76
2022/12/06 11:43:58;;;;;;;12.13;6.53;;;;;;;-141.28;100.00;52254.28;5092545;28;20200;-79
2022/12/06 11:46:26;;;;;;;10.40;6.50;;;;;;;-141.28;100.00;52199.28;5092007;28;20204;-76